Terminal Aerodrome Forecast
Issued by NWS Amarillo, TX

Home | Current Version | Previous Version | Text Only | Print | Product List | Glossary On
Versions: 1 2 3 4 5 6 7 8 9 10 11 12 13 14 15 16 17 18 19
000
FTUS44 KAMA 232320
TAFDHT
TAF
KDHT 232320Z 2400/2424 08012G22KT P6SM BKN050
     FM240200 08009KT P6SM VCSH BKN050 PROB30 2410/2414 -TSRA
      BKN020CB
     FM241800 17015KT 6SM -SHRA VCTS OVC030CB=

USA.gov is the U.S. government's official web portal to all federal, state and local government web resources and services.